<?xml version="1.0" encoding="UTF-8"?>
<gpx xmlns="http://www.topografix.com/GPX/1/1" xmlns:xsi="http://www.w3.org/2001/XMLSchema-instance" version="1.1" xsi:schemaLocation="http://www.topografix.com/GPX/1/1 http://www.topografix.com/GPX/1/1/gpx.xsd">
  <metadata>
    <name>St. Neots Standard Distance Triathlon 2023</name>
  </metadata>
  <trk>
    <name>St. Neots Standard Distance Triathlon 2023</name>
    <trkseg>
      <trkpt lat="52.229077" lon="-0.275716">
        <ele>16.729004</ele>
        <time>2023-09-10T08:00:00.000Z</time>
      </trkpt>
      <trkpt lat="52.229083" lon="-0.275708">
        <ele>16.729008</ele>
        <time>2023-09-10T08:00:00.000Z</time>
      </trkpt>
      <trkpt lat="52.229196" lon="-0.27638">
        <ele>16.729011</ele>
        <time>2023-09-10T08:00:05.000Z</time>
      </trkpt>
      <trkpt lat="52.229202" lon="-0.276449">
        <ele>16.729007</ele>
        <time>2023-09-10T08:00:05.000Z</time>
      </trkpt>
      <trkpt lat="52.229037" lon="-0.276467">
        <ele>16.729019</ele>
        <time>2023-09-10T08:00:07.000Z</time>
      </trkpt>
      <trkpt lat="52.228931" lon="-0.276506">
        <ele>16.729017</ele>
        <time>2023-09-10T08:00:08.000Z</time>
      </trkpt>
      <trkpt lat="52.228771" lon="-0.276524">
        <ele>16.729179</ele>
        <time>2023-09-10T08:00:10.000Z</time>
      </trkpt>
      <trkpt lat="52.228672" lon="-0.276541">
        <ele>16.7376</ele>
        <time>2023-09-10T08:00:11.000Z</time>
      </trkpt>
      <trkpt lat="52.2285" lon="-0.276582">
        <ele>16.7539</ele>
        <time>2023-09-10T08:00:13.000Z</time>
      </trkpt>
      <trkpt lat="52.228416" lon="-0.276589">
        <ele>16.761655</ele>
        <time>2023-09-10T08:00:14.000Z</time>
      </trkpt>
      <trkpt lat="52.227663" lon="-0.276705">
        <ele>16.834099</ele>
        <time>2023-09-10T08:00:22.000Z</time>
      </trkpt>
      <trkpt lat="52.227452" lon="-0.276693">
        <ele>16.854238</ele>
        <time>2023-09-10T08:00:24.000Z</time>
      </trkpt>
      <trkpt lat="52.227373" lon="-0.276642">
        <ele>16.861613</ele>
        <time>2023-09-10T08:00:25.000Z</time>
      </trkpt>
      <trkpt lat="52.227269" lon="-0.276468">
        <ele>16.875396</ele>
        <time>2023-09-10T08:00:27.000Z</time>
      </trkpt>
      <trkpt lat="52.227146" lon="-0.276281">
        <ele>16.89159</ele>
        <time>2023-09-10T08:00:29.000Z</time>
      </trkpt>
      <trkpt lat="52.227042" lon="-0.276072">
        <ele>16.902766</ele>
        <time>2023-09-10T08:00:31.000Z</time>
      </trkpt>
      <trkpt lat="52.227002" lon="-0.275941">
        <ele>16.907558</ele>
        <time>2023-09-10T08:00:32.000Z</time>
      </trkpt>
      <trkpt lat="52.226964" lon="-0.275832">
        <ele>16.91154</ele>
        <time>2023-09-10T08:00:33.000Z</time>
      </trkpt>
      <trkpt lat="52.226921" lon="-0.275804">
        <ele>16.914266</ele>
        <time>2023-09-10T08:00:34.000Z</time>
      </trkpt>
      <trkpt lat="52.22683" lon="-0.275785">
        <ele>16.918373</ele>
        <time>2023-09-10T08:00:35.000Z</time>
      </trkpt>
      <trkpt lat="52.226807" lon="-0.275799">
        <ele>16.919768</ele>
        <time>2023-09-10T08:00:35.000Z</time>
      </trkpt>
      <trkpt lat="52.226757" lon="-0.275979">
        <ele>16.92537</ele>
        <time>2023-09-10T08:00:36.000Z</time>
      </trkpt>
      <trkpt lat="52.22678" lon="-0.276053">
        <ele>16.927711</ele>
        <time>2023-09-10T08:00:37.000Z</time>
      </trkpt>
      <trkpt lat="52.226879" lon="-0.276148">
        <ele>16.933861</ele>
        <time>2023-09-10T08:00:38.000Z</time>
      </trkpt>
      <trkpt lat="52.226924" lon="-0.276136">
        <ele>16.936268</ele>
        <time>2023-09-10T08:00:39.000Z</time>
      </trkpt>
      <trkpt lat="52.226998" lon="-0.276186">
        <ele>16.940422</ele>
        <time>2023-09-10T08:00:40.000Z</time>
      </trkpt>
      <trkpt lat="52.227134" lon="-0.276283">
        <ele>16.94803</ele>
        <time>2023-09-10T08:00:42.000Z</time>
      </trkpt>
      <trkpt lat="52.22727" lon="-0.27647">
        <ele>16.956758</ele>
        <time>2023-09-10T08:00:44.000Z</time>
      </trkpt>
      <trkpt lat="52.227381" lon="-0.276634">
        <ele>16.964181</ele>
        <time>2023-09-10T08:00:46.000Z</time>
      </trkpt>
      <trkpt lat="52.227423" lon="-0.276665">
        <ele>16.966448</ele>
        <time>2023-09-10T08:00:47.000Z</time>
      </trkpt>
      <trkpt lat="52.22744" lon="-0.27669">
        <ele>16.968153</ele>
        <time>2023-09-10T08:00:47.000Z</time>
      </trkpt>
      <trkpt lat="52.227653" lon="-0.276703">
        <ele>16.978996</ele>
        <time>2023-09-10T08:00:49.000Z</time>
      </trkpt>
      <trkpt lat="52.228416" lon="-0.276595">
        <ele>17.076408</ele>
        <time>2023-09-10T08:00:58.000Z</time>
      </trkpt>
      <trkpt lat="52.228503" lon="-0.276586">
        <ele>17.089139</ele>
        <time>2023-09-10T08:00:59.000Z</time>
      </trkpt>
      <trkpt lat="52.228677" lon="-0.276553">
        <ele>17.115872</ele>
        <time>2023-09-10T08:01:01.000Z</time>
      </trkpt>
      <trkpt lat="52.228769" lon="-0.276526">
        <ele>17.129691</ele>
        <time>2023-09-10T08:01:02.000Z</time>
      </trkpt>
      <trkpt lat="52.228931" lon="-0.276497">
        <ele>17.155834</ele>
        <time>2023-09-10T08:01:04.000Z</time>
      </trkpt>
      <trkpt lat="52.229051" lon="-0.276476">
        <ele>17.172944</ele>
        <time>2023-09-10T08:01:05.000Z</time>
      </trkpt>
      <trkpt lat="52.229198" lon="-0.276449">
        <ele>17.19705</ele>
        <time>2023-09-10T08:01:07.000Z</time>
      </trkpt>
      <trkpt lat="52.229209" lon="-0.276445">
        <ele>17.19814</ele>
        <time>2023-09-10T08:01:07.000Z</time>
      </trkpt>
      <trkpt lat="52.229276" lon="-0.276437">
        <ele>17.208878</ele>
        <time>2023-09-10T08:01:08.000Z</time>
      </trkpt>
      <trkpt lat="52.229303" lon="-0.276426">
        <ele>17.211832</ele>
        <time>2023-09-10T08:01:08.000Z</time>
      </trkpt>
      <trkpt lat="52.229391" lon="-0.276402">
        <ele>17.225447</ele>
        <time>2023-09-10T08:01:09.000Z</time>
      </trkpt>
      <trkpt lat="52.229417" lon="-0.276395">
        <ele>17.231193</ele>
        <time>2023-09-10T08:01:09.000Z</time>
      </trkpt>
      <trkpt lat="52.229639" lon="-0.276341">
        <ele>17.266546</ele>
        <time>2023-09-10T08:01:11.000Z</time>
      </trkpt>
      <trkpt lat="52.229688" lon="-0.276335">
        <ele>17.287752</ele>
        <time>2023-09-10T08:01:12.000Z</time>
      </trkpt>
      <trkpt lat="52.229776" lon="-0.276323">
        <ele>17.361765</ele>
        <time>2023-09-10T08:01:13.000Z</time>
      </trkpt>
      <trkpt lat="52.22986" lon="-0.2763">
        <ele>17.416534</ele>
        <time>2023-09-10T08:01:14.000Z</time>
      </trkpt>
      <trkpt lat="52.229925" lon="-0.276295">
        <ele>17.474257</ele>
        <time>2023-09-10T08:01:15.000Z</time>
      </trkpt>
      <trkpt lat="52.23005" lon="-0.276271">
        <ele>17.563663</ele>
        <time>2023-09-10T08:01:16.000Z</time>
      </trkpt>
      <trkpt lat="52.230226" lon="-0.27623">
        <ele>17.684351</ele>
        <time>2023-09-10T08:01:18.000Z</time>
      </trkpt>
      <trkpt lat="52.230587" lon="-0.27618">
        <ele>17.947089</ele>
        <time>2023-09-10T08:01:22.000Z</time>
      </trkpt>
      <trkpt lat="52.231998" lon="-0.27602">
        <ele>19.938107</ele>
        <time>2023-09-10T08:01:38.000Z</time>
      </trkpt>
      <trkpt lat="52.232189" lon="-0.276018">
        <ele>20.395428</ele>
        <time>2023-09-10T08:01:40.000Z</time>
      </trkpt>
      <trkpt lat="52.232315" lon="-0.276016">
        <ele>20.696737</ele>
        <time>2023-09-10T08:01:41.000Z</time>
      </trkpt>
      <trkpt lat="52.232551" lon="-0.27608">
        <ele>21.274522</ele>
        <time>2023-09-10T08:01:44.000Z</time>
      </trkpt>
      <trkpt lat="52.232673" lon="-0.276123">
        <ele>21.561167</ele>
        <time>2023-09-10T08:01:45.000Z</time>
      </trkpt>
      <trkpt lat="52.233255" lon="-0.27639">
        <ele>23.016091</ele>
        <time>2023-09-10T08:01:52.000Z</time>
      </trkpt>
      <trkpt lat="52.233657" lon="-0.276579">
        <ele>24.343121</ele>
        <time>2023-09-10T08:01:57.000Z</time>
      </trkpt>
      <trkpt lat="52.233948" lon="-0.276862">
        <ele>25.414479</ele>
        <time>2023-09-10T08:02:01.000Z</time>
      </trkpt>
      <trkpt lat="52.234133" lon="-0.277114">
        <ele>26.174096</ele>
        <time>2023-09-10T08:02:04.000Z</time>
      </trkpt>
      <trkpt lat="52.234465" lon="-0.277673">
        <ele>27.686416</ele>
        <time>2023-09-10T08:02:09.000Z</time>
      </trkpt>
      <trkpt lat="52.234862" lon="-0.278983">
        <ele>29.554071</ele>
        <time>2023-09-10T08:02:19.000Z</time>
      </trkpt>
      <trkpt lat="52.235106" lon="-0.279785">
        <ele>30.462656</ele>
        <time>2023-09-10T08:02:25.000Z</time>
      </trkpt>
      <trkpt lat="52.235907" lon="-0.281794">
        <ele>31.972028</ele>
        <time>2023-09-10T08:02:41.000Z</time>
      </trkpt>
      <trkpt lat="52.235962" lon="-0.282106">
        <ele>32.092398</ele>
        <time>2023-09-10T08:02:43.000Z</time>
      </trkpt>
      <trkpt lat="52.235988" lon="-0.282285">
        <ele>32.154126</ele>
        <time>2023-09-10T08:02:44.000Z</time>
      </trkpt>
      <trkpt lat="52.235969" lon="-0.282309">
        <ele>32.160757</ele>
        <time>2023-09-10T08:02:44.000Z</time>
      </trkpt>
      <trkpt lat="52.236043" lon="-0.282436">
        <ele>32.220034</ele>
        <time>2023-09-10T08:02:45.000Z</time>
      </trkpt>
      <trkpt lat="52.23604" lon="-0.282432">
        <ele>32.224691</ele>
        <time>2023-09-10T08:02:45.000Z</time>
      </trkpt>
      <trkpt lat="52.236296" lon="-0.282619">
        <ele>32.385306</ele>
        <time>2023-09-10T08:02:48.000Z</time>
      </trkpt>
      <trkpt lat="52.236297" lon="-0.282643">
        <ele>32.389591</ele>
        <time>2023-09-10T08:02:48.000Z</time>
      </trkpt>
      <trkpt lat="52.23638" lon="-0.282756">
        <ele>32.454746</ele>
        <time>2023-09-10T08:02:49.000Z</time>
      </trkpt>
      <trkpt lat="52.236465" lon="-0.282895">
        <ele>32.5239</ele>
        <time>2023-09-10T08:02:50.000Z</time>
      </trkpt>
      <trkpt lat="52.236684" lon="-0.28336">
        <ele>32.516098</ele>
        <time>2023-09-10T08:02:54.000Z</time>
      </trkpt>
      <trkpt lat="52.237068" lon="-0.284212">
        <ele>32.48113</ele>
        <time>2023-09-10T08:03:01.000Z</time>
      </trkpt>
      <trkpt lat="52.237445" lon="-0.285246">
        <ele>32.440516</ele>
        <time>2023-09-10T08:03:09.000Z</time>
      </trkpt>
      <trkpt lat="52.237755" lon="-0.286172">
        <ele>32.365848</ele>
        <time>2023-09-10T08:03:16.000Z</time>
      </trkpt>
      <trkpt lat="52.237803" lon="-0.28631">
        <ele>32.353399</ele>
        <time>2023-09-10T08:03:17.000Z</time>
      </trkpt>
      <trkpt lat="52.238311" lon="-0.287882">
        <ele>32.216929</ele>
        <time>2023-09-10T08:03:29.000Z</time>
      </trkpt>
      <trkpt lat="52.239108" lon="-0.291042">
        <ele>32.36397</ele>
        <time>2023-09-10T08:03:52.000Z</time>
      </trkpt>
      <trkpt lat="52.23926" lon="-0.291522">
        <ele>32.428988</ele>
        <time>2023-09-10T08:03:56.000Z</time>
      </trkpt>
      <trkpt lat="52.239598" lon="-0.292165">
        <ele>32.530778</ele>
        <time>2023-09-10T08:04:02.000Z</time>
      </trkpt>
      <trkpt lat="52.2402" lon="-0.292962">
        <ele>32.655277</ele>
        <time>2023-09-10T08:04:11.000Z</time>
      </trkpt>
      <trkpt lat="52.240551" lon="-0.29314">
        <ele>32.606457</ele>
        <time>2023-09-10T08:04:15.000Z</time>
      </trkpt>
      <trkpt lat="52.241188" lon="-0.293232">
        <ele>32.520969</ele>
        <time>2023-09-10T08:04:22.000Z</time>
      </trkpt>
      <trkpt lat="52.241377" lon="-0.293244">
        <ele>32.49493</ele>
        <time>2023-09-10T08:04:24.000Z</time>
      </trkpt>
      <trkpt lat="52.241856" lon="-0.293465">
        <ele>32.428245</ele>
        <time>2023-09-10T08:04:30.000Z</time>
      </trkpt>
      <trkpt lat="52.242061" lon="-0.293631">
        <ele>32.267245</ele>
        <time>2023-09-10T08:04:33.000Z</time>
      </trkpt>
      <trkpt lat="52.242266" lon="-0.293962">
        <ele>32.040644</ele>
        <time>2023-09-10T08:04:36.000Z</time>
      </trkpt>
      <trkpt lat="52.242417" lon="-0.294398">
        <ele>31.797312</ele>
        <time>2023-09-10T08:04:39.000Z</time>
      </trkpt>
      <trkpt lat="52.242643" lon="-0.295461">
        <ele>31.266229</ele>
        <time>2023-09-10T08:04:47.000Z</time>
      </trkpt>
      <trkpt lat="52.242785" lon="-0.295858">
        <ele>31.041356</ele>
        <time>2023-09-10T08:04:50.000Z</time>
      </trkpt>
      <trkpt lat="52.243629" lon="-0.297742">
        <ele>30.917469</ele>
        <time>2023-09-10T08:05:06.000Z</time>
      </trkpt>
      <trkpt lat="52.24398" lon="-0.298419">
        <ele>31.047746</ele>
        <time>2023-09-10T08:05:12.000Z</time>
      </trkpt>
      <trkpt lat="52.244279" lon="-0.298777">
        <ele>31.44631</ele>
        <time>2023-09-10T08:05:16.000Z</time>
      </trkpt>
      <trkpt lat="52.244971" lon="-0.299613">
        <ele>32.368651</ele>
        <time>2023-09-10T08:05:26.000Z</time>
      </trkpt>
      <trkpt lat="52.245164" lon="-0.29998">
        <ele>32.698989</ele>
        <time>2023-09-10T08:05:29.000Z</time>
      </trkpt>
      <trkpt lat="52.245483" lon="-0.30036">
        <ele>32.959099</ele>
        <time>2023-09-10T08:05:33.000Z</time>
      </trkpt>
      <trkpt lat="52.246341" lon="-0.301415">
        <ele>33.507033</ele>
        <time>2023-09-10T08:05:45.000Z</time>
      </trkpt>
      <trkpt lat="52.246793" lon="-0.302091">
        <ele>33.722149</ele>
        <time>2023-09-10T08:05:52.000Z</time>
      </trkpt>
      <trkpt lat="52.247084" lon="-0.302635">
        <ele>33.680246</ele>
        <time>2023-09-10T08:05:57.000Z</time>
      </trkpt>
      <trkpt lat="52.24749" lon="-0.303661">
        <ele>33.609355</ele>
        <time>2023-09-10T08:06:05.000Z</time>
      </trkpt>
      <trkpt lat="52.248098" lon="-0.305467">
        <ele>33.414867</ele>
        <time>2023-09-10T08:06:19.000Z</time>
      </trkpt>
      <trkpt lat="52.248572" lon="-0.30626">
        <ele>33.284431</ele>
        <time>2023-09-10T08:06:27.000Z</time>
      </trkpt>
      <trkpt lat="52.248994" lon="-0.306576">
        <ele>33.174415</ele>
        <time>2023-09-10T08:06:32.000Z</time>
      </trkpt>
      <trkpt lat="52.24921" lon="-0.306658">
        <ele>33.097127</ele>
        <time>2023-09-10T08:06:34.000Z</time>
      </trkpt>
      <trkpt lat="52.249826" lon="-0.306718">
        <ele>32.892052</ele>
        <time>2023-09-10T08:06:41.000Z</time>
      </trkpt>
      <trkpt lat="52.250453" lon="-0.306794">
        <ele>32.678294</ele>
        <time>2023-09-10T08:06:48.000Z</time>
      </trkpt>
      <trkpt lat="52.25138" lon="-0.307125">
        <ele>31.546277</ele>
        <time>2023-09-10T08:06:59.000Z</time>
      </trkpt>
      <trkpt lat="52.25209" lon="-0.307021">
        <ele>30.589007</ele>
        <time>2023-09-10T08:07:07.000Z</time>
      </trkpt>
      <trkpt lat="52.25291" lon="-0.306817">
        <ele>28.991643</ele>
        <time>2023-09-10T08:07:16.000Z</time>
      </trkpt>
      <trkpt lat="52.253121" lon="-0.306876">
        <ele>28.499276</ele>
        <time>2023-09-10T08:07:18.000Z</time>
      </trkpt>
      <trkpt lat="52.253305" lon="-0.307119">
        <ele>27.993832</ele>
        <time>2023-09-10T08:07:21.000Z</time>
      </trkpt>
      <trkpt lat="52.253791" lon="-0.308105">
        <ele>26.22027</ele>
        <time>2023-09-10T08:07:30.000Z</time>
      </trkpt>
      <trkpt lat="52.254198" lon="-0.308913">
        <ele>25.049363</ele>
        <time>2023-09-10T08:07:37.000Z</time>
      </trkpt>
      <trkpt lat="52.254407" lon="-0.309358">
        <ele>24.443772</ele>
        <time>2023-09-10T08:07:41.000Z</time>
      </trkpt>
      <trkpt lat="52.255373" lon="-0.310765">
        <ele>22.597814</ele>
        <time>2023-09-10T08:07:55.000Z</time>
      </trkpt>
      <trkpt lat="52.255599" lon="-0.310967">
        <ele>22.430725</ele>
        <time>2023-09-10T08:07:58.000Z</time>
      </trkpt>
      <trkpt lat="52.256362" lon="-0.311115">
        <ele>21.905371</ele>
        <time>2023-09-10T08:08:07.000Z</time>
      </trkpt>
      <trkpt lat="52.256634" lon="-0.311252">
        <ele>21.718311</ele>
        <time>2023-09-10T08:08:10.000Z</time>
      </trkpt>
      <trkpt lat="52.257214" lon="-0.312249">
        <ele>22.084414</ele>
        <time>2023-09-10T08:08:19.000Z</time>
      </trkpt>
      <trkpt lat="52.257685" lon="-0.313421">
        <ele>22.545093</ele>
        <time>2023-09-10T08:08:29.000Z</time>
      </trkpt>
      <trkpt lat="52.258181" lon="-0.314665">
        <ele>22.99227</ele>
        <time>2023-09-10T08:08:39.000Z</time>
      </trkpt>
      <trkpt lat="52.259774" lon="-0.318505">
        <ele>24.033022</ele>
        <time>2023-09-10T08:09:11.000Z</time>
      </trkpt>
      <trkpt lat="52.260116" lon="-0.319104">
        <ele>24.267277</ele>
        <time>2023-09-10T08:09:17.000Z</time>
      </trkpt>
      <trkpt lat="52.260478" lon="-0.319896">
        <ele>24.559802</ele>
        <time>2023-09-10T08:09:24.000Z</time>
      </trkpt>
      <trkpt lat="52.260804" lon="-0.320938">
        <ele>24.90315</ele>
        <time>2023-09-10T08:09:32.000Z</time>
      </trkpt>
      <trkpt lat="52.261175" lon="-0.321869">
        <ele>25.121358</ele>
        <time>2023-09-10T08:09:40.000Z</time>
      </trkpt>
      <trkpt lat="52.263945" lon="-0.330473">
        <ele>26.724433</ele>
        <time>2023-09-10T08:10:46.000Z</time>
      </trkpt>
      <trkpt lat="52.264151" lon="-0.330889">
        <ele>26.745221</ele>
        <time>2023-09-10T08:10:50.000Z</time>
      </trkpt>
      <trkpt lat="52.264367" lon="-0.331201">
        <ele>26.731911</ele>
        <time>2023-09-10T08:10:53.000Z</time>
      </trkpt>
      <trkpt lat="52.26591" lon="-0.332997">
        <ele>25.807656</ele>
        <time>2023-09-10T08:11:14.000Z</time>
      </trkpt>
      <trkpt lat="52.266317" lon="-0.33401">
        <ele>25.461224</ele>
        <time>2023-09-10T08:11:22.000Z</time>
      </trkpt>
      <trkpt lat="52.266639" lon="-0.335704">
        <ele>25.053747</ele>
        <time>2023-09-10T08:11:34.000Z</time>
      </trkpt>
      <trkpt lat="52.267018" lon="-0.337581">
        <ele>25.164562</ele>
        <time>2023-09-10T08:11:47.000Z</time>
      </trkpt>
      <trkpt lat="52.267102" lon="-0.337993">
        <ele>25.188626</ele>
        <time>2023-09-10T08:11:50.000Z</time>
      </trkpt>
      <trkpt lat="52.267127" lon="-0.338109">
        <ele>25.196235</ele>
        <time>2023-09-10T08:11:51.000Z</time>
      </trkpt>
      <trkpt lat="52.267524" lon="-0.340223">
        <ele>26.880687</ele>
        <time>2023-09-10T08:12:06.000Z</time>
      </trkpt>
      <trkpt lat="52.26759" lon="-0.340594">
        <ele>27.194593</ele>
        <time>2023-09-10T08:12:09.000Z</time>
      </trkpt>
      <trkpt lat="52.267755" lon="-0.341553">
        <ele>28.103289</ele>
        <time>2023-09-10T08:12:16.000Z</time>
      </trkpt>
      <trkpt lat="52.267886" lon="-0.342327">
        <ele>28.900587</ele>
        <time>2023-09-10T08:12:21.000Z</time>
      </trkpt>
      <trkpt lat="52.267964" lon="-0.342883">
        <ele>29.444287</ele>
        <time>2023-09-10T08:12:25.000Z</time>
      </trkpt>
      <trkpt lat="52.268101" lon="-0.343939">
        <ele>30.474736</ele>
        <time>2023-09-10T08:12:32.000Z</time>
      </trkpt>
      <trkpt lat="52.268111" lon="-0.344047">
        <ele>30.493857</ele>
        <time>2023-09-10T08:12:33.000Z</time>
      </trkpt>
      <trkpt lat="52.26815" lon="-0.344483">
        <ele>30.577749</ele>
        <time>2023-09-10T08:12:36.000Z</time>
      </trkpt>
      <trkpt lat="52.268286" lon="-0.345298">
        <ele>30.738202</ele>
        <time>2023-09-10T08:12:42.000Z</time>
      </trkpt>
      <trkpt lat="52.26856" lon="-0.345479">
        <ele>30.828153</ele>
        <time>2023-09-10T08:12:45.000Z</time>
      </trkpt>
      <trkpt lat="52.268913" lon="-0.345561">
        <ele>30.939531</ele>
        <time>2023-09-10T08:12:49.000Z</time>
      </trkpt>
      <trkpt lat="52.269171" lon="-0.345664">
        <ele>31.021047</ele>
        <time>2023-09-10T08:12:52.000Z</time>
      </trkpt>
      <trkpt lat="52.269855" lon="-0.346026">
        <ele>30.394761</ele>
        <time>2023-09-10T08:13:00.000Z</time>
      </trkpt>
      <trkpt lat="52.270315" lon="-0.346188">
        <ele>29.98827</ele>
        <time>2023-09-10T08:13:05.000Z</time>
      </trkpt>
      <trkpt lat="52.270594" lon="-0.346289">
        <ele>29.726963</ele>
        <time>2023-09-10T08:13:08.000Z</time>
      </trkpt>
      <trkpt lat="52.270809" lon="-0.346324">
        <ele>29.53397</ele>
        <time>2023-09-10T08:13:10.000Z</time>
      </trkpt>
      <trkpt lat="52.270843" lon="-0.346332">
        <ele>29.504823</ele>
        <time>2023-09-10T08:13:10.000Z</time>
      </trkpt>
      <trkpt lat="52.271478" lon="-0.346535">
        <ele>29.14923</ele>
        <time>2023-09-10T08:13:17.000Z</time>
      </trkpt>
      <trkpt lat="52.271597" lon="-0.346629">
        <ele>29.079732</ele>
        <time>2023-09-10T08:13:18.000Z</time>
      </trkpt>
      <trkpt lat="52.271888" lon="-0.347014">
        <ele>28.886862</ele>
        <time>2023-09-10T08:13:22.000Z</time>
      </trkpt>
      <trkpt lat="52.272342" lon="-0.348145">
        <ele>28.54985</ele>
        <time>2023-09-10T08:13:31.000Z</time>
      </trkpt>
      <trkpt lat="52.273418" lon="-0.350974">
        <ele>29.186893</ele>
        <time>2023-09-10T08:13:54.000Z</time>
      </trkpt>
      <trkpt lat="52.275173" lon="-0.355786">
        <ele>29.755013</ele>
        <time>2023-09-10T08:14:32.000Z</time>
      </trkpt>
      <trkpt lat="52.275655" lon="-0.35817">
        <ele>30.220192</ele>
        <time>2023-09-10T08:14:49.000Z</time>
      </trkpt>
      <trkpt lat="52.275786" lon="-0.358508">
        <ele>30.472789</ele>
        <time>2023-09-10T08:14:52.000Z</time>
      </trkpt>
      <trkpt lat="52.276171" lon="-0.359153">
        <ele>31.249666</ele>
        <time>2023-09-10T08:14:58.000Z</time>
      </trkpt>
      <trkpt lat="52.27702" lon="-0.359783">
        <ele>32.570812</ele>
        <time>2023-09-10T08:15:08.000Z</time>
      </trkpt>
      <trkpt lat="52.280183" lon="-0.361644">
        <ele>40.656635</ele>
        <time>2023-09-10T08:15:45.000Z</time>
      </trkpt>
      <trkpt lat="52.281173" lon="-0.362317">
        <ele>42.296975</ele>
        <time>2023-09-10T08:15:57.000Z</time>
      </trkpt>
      <trkpt lat="52.282728" lon="-0.363348">
        <ele>44.294199</ele>
        <time>2023-09-10T08:16:16.000Z</time>
      </trkpt>
      <trkpt lat="52.28279" lon="-0.363149">
        <ele>44.482631</ele>
        <time>2023-09-10T08:16:18.000Z</time>
      </trkpt>
      <trkpt lat="52.282796" lon="-0.362786">
        <ele>44.776453</ele>
        <time>2023-09-10T08:16:20.000Z</time>
      </trkpt>
      <trkpt lat="52.282738" lon="-0.362393">
        <ele>45.106437</ele>
        <time>2023-09-10T08:16:23.000Z</time>
      </trkpt>
      <trkpt lat="52.282558" lon="-0.361724">
        <ele>45.707456</ele>
        <time>2023-09-10T08:16:28.000Z</time>
      </trkpt>
      <trkpt lat="52.282469" lon="-0.361227">
        <ele>45.933559</ele>
        <time>2023-09-10T08:16:32.000Z</time>
      </trkpt>
      <trkpt lat="52.2813" lon="-0.348459">
        <ele>44.559907</ele>
        <time>2023-09-10T08:18:00.000Z</time>
      </trkpt>
      <trkpt lat="52.28108" lon="-0.347366">
        <ele>43.986546</ele>
        <time>2023-09-10T08:18:08.000Z</time>
      </trkpt>
      <trkpt lat="52.280546" lon="-0.345786">
        <ele>42.592139</ele>
        <time>2023-09-10T08:18:20.000Z</time>
      </trkpt>
      <trkpt lat="52.278589" lon="-0.339721">
        <ele>36.941157</ele>
        <time>2023-09-10T08:19:07.000Z</time>
      </trkpt>
      <trkpt lat="52.278278" lon="-0.338707">
        <ele>36.455294</ele>
        <time>2023-09-10T08:19:15.000Z</time>
      </trkpt>
      <trkpt lat="52.279007" lon="-0.338101">
        <ele>36.353143</ele>
        <time>2023-09-10T08:19:24.000Z</time>
      </trkpt>
      <trkpt lat="52.281537" lon="-0.336345">
        <ele>40.067262</ele>
        <time>2023-09-10T08:19:55.000Z</time>
      </trkpt>
      <trkpt lat="52.282858" lon="-0.335348">
        <ele>46.323909</ele>
        <time>2023-09-10T08:20:11.000Z</time>
      </trkpt>
      <trkpt lat="52.283726" lon="-0.334518">
        <ele>51.1804</ele>
        <time>2023-09-10T08:20:22.000Z</time>
      </trkpt>
      <trkpt lat="52.284322" lon="-0.333739">
        <ele>54.831707</ele>
        <time>2023-09-10T08:20:30.000Z</time>
      </trkpt>
      <trkpt lat="52.284964" lon="-0.333123">
        <ele>57.26383</ele>
        <time>2023-09-10T08:20:38.000Z</time>
      </trkpt>
      <trkpt lat="52.285838" lon="-0.332235">
        <ele>60.593268</ele>
        <time>2023-09-10T08:20:49.000Z</time>
      </trkpt>
      <trkpt lat="52.286742" lon="-0.330227">
        <ele>62.738706</ele>
        <time>2023-09-10T08:21:06.000Z</time>
      </trkpt>
      <trkpt lat="52.28861" lon="-0.327195">
        <ele>61.216035</ele>
        <time>2023-09-10T08:21:35.000Z</time>
      </trkpt>
      <trkpt lat="52.288908" lon="-0.326497">
        <ele>60.443934</ele>
        <time>2023-09-10T08:21:41.000Z</time>
      </trkpt>
      <trkpt lat="52.289281" lon="-0.325078">
        <ele>59.124189</ele>
        <time>2023-09-10T08:21:52.000Z</time>
      </trkpt>
      <trkpt lat="52.28951" lon="-0.324259">
        <ele>58.682385</ele>
        <time>2023-09-10T08:21:58.000Z</time>
      </trkpt>
      <trkpt lat="52.28966" lon="-0.323702">
        <ele>58.378987</ele>
        <time>2023-09-10T08:22:02.000Z</time>
      </trkpt>
      <trkpt lat="52.28977" lon="-0.323038">
        <ele>58.048887</ele>
        <time>2023-09-10T08:22:07.000Z</time>
      </trkpt>
      <trkpt lat="52.289771" lon="-0.322555">
        <ele>57.807521</ele>
        <time>2023-09-10T08:22:10.000Z</time>
      </trkpt>
      <trkpt lat="52.289675" lon="-0.322052">
        <ele>57.863679</ele>
        <time>2023-09-10T08:22:14.000Z</time>
      </trkpt>
      <trkpt lat="52.289379" lon="-0.321457">
        <ele>57.973033</ele>
        <time>2023-09-10T08:22:19.000Z</time>
      </trkpt>
      <trkpt lat="52.289316" lon="-0.321287">
        <ele>58.002405</ele>
        <time>2023-09-10T08:22:20.000Z</time>
      </trkpt>
      <trkpt lat="52.288985" lon="-0.320827">
        <ele>58.105263</ele>
        <time>2023-09-10T08:22:25.000Z</time>
      </trkpt>
      <trkpt lat="52.288682" lon="-0.320631">
        <ele>58.185072</ele>
        <time>2023-09-10T08:22:29.000Z</time>
      </trkpt>
      <trkpt lat="52.288487" lon="-0.320411">
        <ele>58.200137</ele>
        <time>2023-09-10T08:22:32.000Z</time>
      </trkpt>
      <trkpt lat="52.28842" lon="-0.320151">
        <ele>58.164851</ele>
        <time>2023-09-10T08:22:34.000Z</time>
      </trkpt>
      <trkpt lat="52.288391" lon="-0.319815">
        <ele>58.122281</ele>
        <time>2023-09-10T08:22:36.000Z</time>
      </trkpt>
      <trkpt lat="52.288418" lon="-0.319453">
        <ele>58.077999</ele>
        <time>2023-09-10T08:22:38.000Z</time>
      </trkpt>
      <trkpt lat="52.288421" lon="-0.319058">
        <ele>58.02829</ele>
        <time>2023-09-10T08:22:41.000Z</time>
      </trkpt>
      <trkpt lat="52.288346" lon="-0.318748">
        <ele>57.986897</ele>
        <time>2023-09-10T08:22:43.000Z</time>
      </trkpt>
      <trkpt lat="52.288327" lon="-0.318691">
        <ele>57.980109</ele>
        <time>2023-09-10T08:22:43.000Z</time>
      </trkpt>
      <trkpt lat="52.288075" lon="-0.318013">
        <ele>57.881357</ele>
        <time>2023-09-10T08:22:48.000Z</time>
      </trkpt>
      <trkpt lat="52.288028" lon="-0.317875">
        <ele>57.862777</ele>
        <time>2023-09-10T08:22:49.000Z</time>
      </trkpt>
      <trkpt lat="52.287982" lon="-0.317697">
        <ele>57.790874</ele>
        <time>2023-09-10T08:22:50.000Z</time>
      </trkpt>
      <trkpt lat="52.287873" lon="-0.316929">
        <ele>57.370219</ele>
        <time>2023-09-10T08:22:55.000Z</time>
      </trkpt>
      <trkpt lat="52.287869" lon="-0.315805">
        <ele>56.770488</ele>
        <time>2023-09-10T08:23:03.000Z</time>
      </trkpt>
      <trkpt lat="52.287762" lon="-0.314518">
        <ele>56.109954</ele>
        <time>2023-09-10T08:23:12.000Z</time>
      </trkpt>
      <trkpt lat="52.287772" lon="-0.314437">
        <ele>56.070559</ele>
        <time>2023-09-10T08:23:13.000Z</time>
      </trkpt>
      <trkpt lat="52.287736" lon="-0.314153">
        <ele>55.933425</ele>
        <time>2023-09-10T08:23:15.000Z</time>
      </trkpt>
      <trkpt lat="52.287377" lon="-0.312793">
        <ele>55.224643</ele>
        <time>2023-09-10T08:23:25.000Z</time>
      </trkpt>
      <trkpt lat="52.287354" lon="-0.312212">
        <ele>54.944276</ele>
        <time>2023-09-10T08:23:29.000Z</time>
      </trkpt>
      <trkpt lat="52.287393" lon="-0.311181">
        <ele>54.438381</ele>
        <time>2023-09-10T08:23:36.000Z</time>
      </trkpt>
      <trkpt lat="52.287317" lon="-0.310409">
        <ele>54.043792</ele>
        <time>2023-09-10T08:23:41.000Z</time>
      </trkpt>
      <trkpt lat="52.287096" lon="-0.3095">
        <ele>53.560085</ele>
        <time>2023-09-10T08:23:48.000Z</time>
      </trkpt>
      <trkpt lat="52.286901" lon="-0.308912">
        <ele>53.150091</ele>
        <time>2023-09-10T08:23:53.000Z</time>
      </trkpt>
      <trkpt lat="52.286742" lon="-0.308505">
        <ele>52.822992</ele>
        <time>2023-09-10T08:23:56.000Z</time>
      </trkpt>
      <trkpt lat="52.286375" lon="-0.307421">
        <ele>51.966575</ele>
        <time>2023-09-10T08:24:04.000Z</time>
      </trkpt>
      <trkpt lat="52.285607" lon="-0.305343">
        <ele>50.6356</ele>
        <time>2023-09-10T08:24:21.000Z</time>
      </trkpt>
      <trkpt lat="52.285119" lon="-0.303687">
        <ele>49.965959</ele>
        <time>2023-09-10T08:24:34.000Z</time>
      </trkpt>
      <trkpt lat="52.285012" lon="-0.303256">
        <ele>49.940219</ele>
        <time>2023-09-10T08:24:37.000Z</time>
      </trkpt>
      <trkpt lat="52.284915" lon="-0.302889">
        <ele>49.91883</ele>
        <time>2023-09-10T08:24:40.000Z</time>
      </trkpt>
      <trkpt lat="52.284831" lon="-0.302581">
        <ele>49.900171</ele>
        <time>2023-09-10T08:24:42.000Z</time>
      </trkpt>
      <trkpt lat="52.284091" lon="-0.29908">
        <ele>49.956194</ele>
        <time>2023-09-10T08:25:07.000Z</time>
      </trkpt>
      <trkpt lat="52.284043" lon="-0.29876">
        <ele>49.973294</ele>
        <time>2023-09-10T08:25:09.000Z</time>
      </trkpt>
      <trkpt lat="52.283706" lon="-0.296697">
        <ele>49.456173</ele>
        <time>2023-09-10T08:25:24.000Z</time>
      </trkpt>
      <trkpt lat="52.283465" lon="-0.294798">
        <ele>48.938248</ele>
        <time>2023-09-10T08:25:37.000Z</time>
      </trkpt>
      <trkpt lat="52.283184" lon="-0.291901">
        <ele>48.227102</ele>
        <time>2023-09-10T08:25:57.000Z</time>
      </trkpt>
      <trkpt lat="52.283186" lon="-0.290545">
        <ele>47.983319</ele>
        <time>2023-09-10T08:26:06.000Z</time>
      </trkpt>
      <trkpt lat="52.283249" lon="-0.289878">
        <ele>47.840165</ele>
        <time>2023-09-10T08:26:11.000Z</time>
      </trkpt>
      <trkpt lat="52.28338" lon="-0.28909">
        <ele>47.460121</ele>
        <time>2023-09-10T08:26:17.000Z</time>
      </trkpt>
      <trkpt lat="52.283518" lon="-0.288492">
        <ele>47.169416</ele>
        <time>2023-09-10T08:26:21.000Z</time>
      </trkpt>
      <trkpt lat="52.283908" lon="-0.287402">
        <ele>46.583159</ele>
        <time>2023-09-10T08:26:30.000Z</time>
      </trkpt>
      <trkpt lat="52.284367" lon="-0.286569">
        <ele>45.239287</ele>
        <time>2023-09-10T08:26:38.000Z</time>
      </trkpt>
      <trkpt lat="52.284911" lon="-0.285822">
        <ele>43.712443</ele>
        <time>2023-09-10T08:26:46.000Z</time>
      </trkpt>
      <trkpt lat="52.285777" lon="-0.285088">
        <ele>41.235753</ele>
        <time>2023-09-10T08:26:57.000Z</time>
      </trkpt>
      <trkpt lat="52.288694" lon="-0.282989">
        <ele>33.191599</ele>
        <time>2023-09-10T08:27:32.000Z</time>
      </trkpt>
      <trkpt lat="52.289236" lon="-0.282486">
        <ele>34.217752</ele>
        <time>2023-09-10T08:27:39.000Z</time>
      </trkpt>
      <trkpt lat="52.289531" lon="-0.282147">
        <ele>34.790034</ele>
        <time>2023-09-10T08:27:43.000Z</time>
      </trkpt>
      <trkpt lat="52.290188" lon="-0.281094">
        <ele>36.282088</ele>
        <time>2023-09-10T08:27:53.000Z</time>
      </trkpt>
      <trkpt lat="52.290396" lon="-0.280247">
        <ele>37.160441</ele>
        <time>2023-09-10T08:27:59.000Z</time>
      </trkpt>
      <trkpt lat="52.290635" lon="-0.278952">
        <ele>38.465128</ele>
        <time>2023-09-10T08:28:08.000Z</time>
      </trkpt>
      <trkpt lat="52.290913" lon="-0.279056">
        <ele>38.869421</ele>
        <time>2023-09-10T08:28:11.000Z</time>
      </trkpt>
      <trkpt lat="52.295889" lon="-0.28622">
        <ele>43.553448</ele>
        <time>2023-09-10T08:29:25.000Z</time>
      </trkpt>
      <trkpt lat="52.296365" lon="-0.286906">
        <ele>44.215834</ele>
        <time>2023-09-10T08:29:32.000Z</time>
      </trkpt>
      <trkpt lat="52.296418" lon="-0.286979">
        <ele>44.309876</ele>
        <time>2023-09-10T08:29:33.000Z</time>
      </trkpt>
      <trkpt lat="52.298081" lon="-0.289378">
        <ele>47.519517</ele>
        <time>2023-09-10T08:29:58.000Z</time>
      </trkpt>
      <trkpt lat="52.298351" lon="-0.289738">
        <ele>47.983743</ele>
        <time>2023-09-10T08:30:02.000Z</time>
      </trkpt>
      <trkpt lat="52.299843" lon="-0.291931">
        <ele>50.801359</ele>
        <time>2023-09-10T08:30:24.000Z</time>
      </trkpt>
      <trkpt lat="52.300214" lon="-0.29246">
        <ele>51.490889</ele>
        <time>2023-09-10T08:30:29.000Z</time>
      </trkpt>
      <trkpt lat="52.301506" lon="-0.293603">
        <ele>53.454278</ele>
        <time>2023-09-10T08:30:45.000Z</time>
      </trkpt>
      <trkpt lat="52.30167" lon="-0.293688">
        <ele>53.686278</ele>
        <time>2023-09-10T08:30:47.000Z</time>
      </trkpt>
      <trkpt lat="52.304772" lon="-0.294143">
        <ele>55.889803</ele>
        <time>2023-09-10T08:31:22.000Z</time>
      </trkpt>
      <trkpt lat="52.305103" lon="-0.294303">
        <ele>56.100299</ele>
        <time>2023-09-10T08:31:26.000Z</time>
      </trkpt>
      <trkpt lat="52.305846" lon="-0.2954">
        <ele>56.706142</ele>
        <time>2023-09-10T08:31:37.000Z</time>
      </trkpt>
      <trkpt lat="52.30664" lon="-0.296274">
        <ele>57.282653</ele>
        <time>2023-09-10T08:31:48.000Z</time>
      </trkpt>
      <trkpt lat="52.306765" lon="-0.29638">
        <ele>57.37126</ele>
        <time>2023-09-10T08:31:50.000Z</time>
      </trkpt>
      <trkpt lat="52.307263" lon="-0.296794">
        <ele>57.538277</ele>
        <time>2023-09-10T08:31:56.000Z</time>
      </trkpt>
      <trkpt lat="52.307647" lon="-0.297062">
        <ele>57.624614</ele>
        <time>2023-09-10T08:32:01.000Z</time>
      </trkpt>
      <trkpt lat="52.307758" lon="-0.297217">
        <ele>57.655651</ele>
        <time>2023-09-10T08:32:03.000Z</time>
      </trkpt>
      <trkpt lat="52.30785" lon="-0.297551">
        <ele>57.703252</ele>
        <time>2023-09-10T08:32:05.000Z</time>
      </trkpt>
      <trkpt lat="52.308033" lon="-0.297727">
        <ele>57.747107</ele>
        <time>2023-09-10T08:32:07.000Z</time>
      </trkpt>
      <trkpt lat="52.30943" lon="-0.298001">
        <ele>57.098288</ele>
        <time>2023-09-10T08:32:23.000Z</time>
      </trkpt>
      <trkpt lat="52.310345" lon="-0.29821">
        <ele>56.379096</ele>
        <time>2023-09-10T08:32:33.000Z</time>
      </trkpt>
      <trkpt lat="52.310999" lon="-0.298387">
        <ele>55.600869</ele>
        <time>2023-09-10T08:32:40.000Z</time>
      </trkpt>
      <trkpt lat="52.312871" lon="-0.298791">
        <ele>53.963861</ele>
        <time>2023-09-10T08:33:01.000Z</time>
      </trkpt>
      <trkpt lat="52.31326" lon="-0.298876">
        <ele>53.755588</ele>
        <time>2023-09-10T08:33:05.000Z</time>
      </trkpt>
      <trkpt lat="52.3133" lon="-0.298873">
        <ele>53.725647</ele>
        <time>2023-09-10T08:33:05.000Z</time>
      </trkpt>
      <trkpt lat="52.314394" lon="-0.298903">
        <ele>52.797287</ele>
        <time>2023-09-10T08:33:17.000Z</time>
      </trkpt>
      <trkpt lat="52.315476" lon="-0.298641">
        <ele>51.583556</ele>
        <time>2023-09-10T08:33:29.000Z</time>
      </trkpt>
      <trkpt lat="52.316095" lon="-0.298527">
        <ele>48.499498</ele>
        <time>2023-09-10T08:33:36.000Z</time>
      </trkpt>
      <trkpt lat="52.317026" lon="-0.298637">
        <ele>43.262415</ele>
        <time>2023-09-10T08:33:46.000Z</time>
      </trkpt>
      <trkpt lat="52.317681" lon="-0.298562">
        <ele>39.115551</ele>
        <time>2023-09-10T08:33:53.000Z</time>
      </trkpt>
      <trkpt lat="52.318407" lon="-0.298719">
        <ele>33.811325</ele>
        <time>2023-09-10T08:34:01.000Z</time>
      </trkpt>
      <trkpt lat="52.318942" lon="-0.298853">
        <ele>29.848128</ele>
        <time>2023-09-10T08:34:07.000Z</time>
      </trkpt>
      <trkpt lat="52.319193" lon="-0.299012">
        <ele>28.266502</ele>
        <time>2023-09-10T08:34:10.000Z</time>
      </trkpt>
      <trkpt lat="52.319661" lon="-0.299604">
        <ele>26.151809</ele>
        <time>2023-09-10T08:34:17.000Z</time>
      </trkpt>
      <trkpt lat="52.32015" lon="-0.300038">
        <ele>24.15143</ele>
        <time>2023-09-10T08:34:23.000Z</time>
      </trkpt>
      <trkpt lat="52.320542" lon="-0.300181">
        <ele>22.704742</ele>
        <time>2023-09-10T08:34:27.000Z</time>
      </trkpt>
      <trkpt lat="52.320879" lon="-0.300134">
        <ele>21.839889</ele>
        <time>2023-09-10T08:34:31.000Z</time>
      </trkpt>
      <trkpt lat="52.321453" lon="-0.299649">
        <ele>20.898672</ele>
        <time>2023-09-10T08:34:38.000Z</time>
      </trkpt>
      <trkpt lat="52.321852" lon="-0.299511">
        <ele>20.30538</ele>
        <time>2023-09-10T08:34:43.000Z</time>
      </trkpt>
      <trkpt lat="52.32244" lon="-0.299607">
        <ele>19.473362</ele>
        <time>2023-09-10T08:34:50.000Z</time>
      </trkpt>
      <trkpt lat="52.323415" lon="-0.299845">
        <ele>18.835766</ele>
        <time>2023-09-10T08:35:01.000Z</time>
      </trkpt>
      <trkpt lat="52.324456" lon="-0.300285">
        <ele>18.458322</ele>
        <time>2023-09-10T08:35:13.000Z</time>
      </trkpt>
      <trkpt lat="52.324863" lon="-0.300394">
        <ele>18.66779</ele>
        <time>2023-09-10T08:35:18.000Z</time>
      </trkpt>
      <trkpt lat="52.324947" lon="-0.30041">
        <ele>18.716975</ele>
        <time>2023-09-10T08:35:19.000Z</time>
      </trkpt>
      <trkpt lat="52.325231" lon="-0.300504">
        <ele>18.865361</ele>
        <time>2023-09-10T08:35:22.000Z</time>
      </trkpt>
      <trkpt lat="52.32608" lon="-0.300825">
        <ele>19.330041</ele>
        <time>2023-09-10T08:35:32.000Z</time>
      </trkpt>
      <trkpt lat="52.326686" lon="-0.300869">
        <ele>19.682307</ele>
        <time>2023-09-10T08:35:39.000Z</time>
      </trkpt>
      <trkpt lat="52.327351" lon="-0.300646">
        <ele>20.065038</ele>
        <time>2023-09-10T08:35:47.000Z</time>
      </trkpt>
      <trkpt lat="52.328218" lon="-0.300886">
        <ele>20.604338</ele>
        <time>2023-09-10T08:35:57.000Z</time>
      </trkpt>
      <trkpt lat="52.328664" lon="-0.300934">
        <ele>20.882868</ele>
        <time>2023-09-10T08:36:02.000Z</time>
      </trkpt>
      <trkpt lat="52.329374" lon="-0.300918">
        <ele>21.344514</ele>
        <time>2023-09-10T08:36:10.000Z</time>
      </trkpt>
      <trkpt lat="52.330209" lon="-0.300804">
        <ele>22.493259</ele>
        <time>2023-09-10T08:36:19.000Z</time>
      </trkpt>
      <trkpt lat="52.330732" lon="-0.300748">
        <ele>23.279526</ele>
        <time>2023-09-10T08:36:25.000Z</time>
      </trkpt>
      <trkpt lat="52.330792" lon="-0.300746">
        <ele>23.356256</ele>
        <time>2023-09-10T08:36:26.000Z</time>
      </trkpt>
      <trkpt lat="52.331066" lon="-0.300724">
        <ele>23.780969</ele>
        <time>2023-09-10T08:36:29.000Z</time>
      </trkpt>
      <trkpt lat="52.331074" lon="-0.300722">
        <ele>23.78097</ele>
        <time>2023-09-10T08:36:29.000Z</time>
      </trkpt>
      <trkpt lat="52.331079" lon="-0.300727">
        <ele>23.780967</ele>
        <time>2023-09-10T08:36:29.000Z</time>
      </trkpt>
      <trkpt lat="52.331621" lon="-0.300737">
        <ele>24.089655</ele>
        <time>2023-09-10T08:36:35.000Z</time>
      </trkpt>
      <trkpt lat="52.331902" lon="-0.300605">
        <ele>24.04717</ele>
        <time>2023-09-10T08:36:38.000Z</time>
      </trkpt>
      <trkpt lat="52.331978" lon="-0.300525">
        <ele>24.031624</ele>
        <time>2023-09-10T08:36:39.000Z</time>
      </trkpt>
      <trkpt lat="52.331984" lon="-0.300535">
        <ele>24.031615</ele>
        <time>2023-09-10T08:36:39.000Z</time>
      </trkpt>
      <trkpt lat="52.331984" lon="-0.30053">
        <ele>24.03161</ele>
        <time>2023-09-10T08:36:39.000Z</time>
      </trkpt>
      <trkpt lat="52.331838" lon="-0.300287">
        <ele>24.000976</ele>
        <time>2023-09-10T08:36:41.000Z</time>
      </trkpt>
      <trkpt lat="52.331546" lon="-0.300274">
        <ele>23.95535</ele>
        <time>2023-09-10T08:36:44.000Z</time>
      </trkpt>
      <trkpt lat="52.331216" lon="-0.300436">
        <ele>23.904088</ele>
        <time>2023-09-10T08:36:48.000Z</time>
      </trkpt>
      <trkpt lat="52.33106" lon="-0.300575">
        <ele>23.877654</ele>
        <time>2023-09-10T08:36:50.000Z</time>
      </trkpt>
      <trkpt lat="52.331067" lon="-0.300732">
        <ele>23.83335</ele>
        <time>2023-09-10T08:36:51.000Z</time>
      </trkpt>
      <trkpt lat="52.331075" lon="-0.300726">
        <ele>23.833346</ele>
        <time>2023-09-10T08:36:51.000Z</time>
      </trkpt>
      <trkpt lat="52.330793" lon="-0.300755">
        <ele>23.411487</ele>
        <time>2023-09-10T08:36:54.000Z</time>
      </trkpt>
      <trkpt lat="52.330735" lon="-0.30076">
        <ele>23.335267</ele>
        <time>2023-09-10T08:36:55.000Z</time>
      </trkpt>
      <trkpt lat="52.330217" lon="-0.300791">
        <ele>22.554275</ele>
        <time>2023-09-10T08:37:01.000Z</time>
      </trkpt>
      <trkpt lat="52.329376" lon="-0.300914">
        <ele>21.296428</ele>
        <time>2023-09-10T08:37:10.000Z</time>
      </trkpt>
      <trkpt lat="52.328649" lon="-0.300943">
        <ele>20.838382</ele>
        <time>2023-09-10T08:37:18.000Z</time>
      </trkpt>
      <trkpt lat="52.328213" lon="-0.300889">
        <ele>20.607733</ele>
        <time>2023-09-10T08:37:23.000Z</time>
      </trkpt>
      <trkpt lat="52.32735" lon="-0.300648">
        <ele>20.119827</ele>
        <time>2023-09-10T08:37:33.000Z</time>
      </trkpt>
      <trkpt lat="52.326697" lon="-0.300857">
        <ele>19.685463</ele>
        <time>2023-09-10T08:37:40.000Z</time>
      </trkpt>
      <trkpt lat="52.326069" lon="-0.300827">
        <ele>19.285667</ele>
        <time>2023-09-10T08:37:47.000Z</time>
      </trkpt>
      <trkpt lat="52.325226" lon="-0.300508">
        <ele>18.850087</ele>
        <time>2023-09-10T08:37:57.000Z</time>
      </trkpt>
      <trkpt lat="52.324944" lon="-0.300405">
        <ele>18.735824</ele>
        <time>2023-09-10T08:38:00.000Z</time>
      </trkpt>
      <trkpt lat="52.324847" lon="-0.30039">
        <ele>18.697938</ele>
        <time>2023-09-10T08:38:01.000Z</time>
      </trkpt>
      <trkpt lat="52.324474" lon="-0.300268">
        <ele>18.536642</ele>
        <time>2023-09-10T08:38:05.000Z</time>
      </trkpt>
      <trkpt lat="52.323413" lon="-0.299843">
        <ele>18.792107</ele>
        <time>2023-09-10T08:38:17.000Z</time>
      </trkpt>
      <trkpt lat="52.322454" lon="-0.299594">
        <ele>19.547454</ele>
        <time>2023-09-10T08:38:28.000Z</time>
      </trkpt>
      <trkpt lat="52.321867" lon="-0.299518">
        <ele>20.284909</ele>
        <time>2023-09-10T08:38:35.000Z</time>
      </trkpt>
      <trkpt lat="52.321459" lon="-0.299634">
        <ele>20.930396</ele>
        <time>2023-09-10T08:38:40.000Z</time>
      </trkpt>
      <trkpt lat="52.320878" lon="-0.300131">
        <ele>21.954428</ele>
        <time>2023-09-10T08:38:47.000Z</time>
      </trkpt>
      <trkpt lat="52.320528" lon="-0.300177">
        <ele>22.483447</ele>
        <time>2023-09-10T08:38:51.000Z</time>
      </trkpt>
      <trkpt lat="52.320134" lon="-0.300049">
        <ele>24.011945</ele>
        <time>2023-09-10T08:38:55.000Z</time>
      </trkpt>
      <trkpt lat="52.319648" lon="-0.299612">
        <ele>26.262353</ele>
        <time>2023-09-10T08:39:01.000Z</time>
      </trkpt>
      <trkpt lat="52.319193" lon="-0.299016">
        <ele>28.641349</ele>
        <time>2023-09-10T08:39:07.000Z</time>
      </trkpt>
      <trkpt lat="52.318958" lon="-0.298864">
        <ele>29.693041</ele>
        <time>2023-09-10T08:39:10.000Z</time>
      </trkpt>
      <trkpt lat="52.318407" lon="-0.298715">
        <ele>33.631095</ele>
        <time>2023-09-10T08:39:16.000Z</time>
      </trkpt>
      <trkpt lat="52.317677" lon="-0.298569">
        <ele>39.059567</ele>
        <time>2023-09-10T08:39:24.000Z</time>
      </trkpt>
      <trkpt lat="52.317031" lon="-0.29863">
        <ele>43.600872</ele>
        <time>2023-09-10T08:39:31.000Z</time>
      </trkpt>
      <trkpt lat="52.316096" lon="-0.298531">
        <ele>48.300596</ele>
        <time>2023-09-10T08:39:41.000Z</time>
      </trkpt>
      <trkpt lat="52.315474" lon="-0.298657">
        <ele>51.355466</ele>
        <time>2023-09-10T08:39:48.000Z</time>
      </trkpt>
      <trkpt lat="52.314386" lon="-0.298905">
        <ele>52.841816</ele>
        <time>2023-09-10T08:40:00.000Z</time>
      </trkpt>
      <trkpt lat="52.313315" lon="-0.298878">
        <ele>53.671085</ele>
        <time>2023-09-10T08:40:12.000Z</time>
      </trkpt>
      <trkpt lat="52.31326" lon="-0.298871">
        <ele>53.706897</ele>
        <time>2023-09-10T08:40:13.000Z</time>
      </trkpt>
      <trkpt lat="52.312878" lon="-0.298792">
        <ele>53.955988</ele>
        <time>2023-09-10T08:40:17.000Z</time>
      </trkpt>
      <trkpt lat="52.310992" lon="-0.298387">
        <ele>55.587188</ele>
        <time>2023-09-10T08:40:38.000Z</time>
      </trkpt>
      <trkpt lat="52.310332" lon="-0.298196">
        <ele>56.371489</ele>
        <time>2023-09-10T08:40:45.000Z</time>
      </trkpt>
      <trkpt lat="52.309423" lon="-0.297997">
        <ele>57.124024</ele>
        <time>2023-09-10T08:40:55.000Z</time>
      </trkpt>
      <trkpt lat="52.308028" lon="-0.29772">
        <ele>57.812417</ele>
        <time>2023-09-10T08:41:11.000Z</time>
      </trkpt>
      <trkpt lat="52.307851" lon="-0.297559">
        <ele>57.750041</ele>
        <time>2023-09-10T08:41:13.000Z</time>
      </trkpt>
      <trkpt lat="52.307747" lon="-0.297227">
        <ele>57.682349</ele>
        <time>2023-09-10T08:41:16.000Z</time>
      </trkpt>
      <trkpt lat="52.30763" lon="-0.297062">
        <ele>57.638211</ele>
        <time>2023-09-10T08:41:18.000Z</time>
      </trkpt>
      <trkpt lat="52.307261" lon="-0.296781">
        <ele>57.515417</ele>
        <time>2023-09-10T08:41:23.000Z</time>
      </trkpt>
      <trkpt lat="52.306779" lon="-0.296394">
        <ele>57.352382</ele>
        <time>2023-09-10T08:41:29.000Z</time>
      </trkpt>
      <trkpt lat="52.306642" lon="-0.296273">
        <ele>57.288779</ele>
        <time>2023-09-10T08:41:31.000Z</time>
      </trkpt>
      <trkpt lat="52.305857" lon="-0.295405">
        <ele>56.709598</ele>
        <time>2023-09-10T08:41:42.000Z</time>
      </trkpt>
      <trkpt lat="52.305106" lon="-0.294307">
        <ele>56.100754</ele>
        <time>2023-09-10T08:41:53.000Z</time>
      </trkpt>
      <trkpt lat="52.304766" lon="-0.294128">
        <ele>55.889662</ele>
        <time>2023-09-10T08:41:57.000Z</time>
      </trkpt>
      <trkpt lat="52.301675" lon="-0.293697">
        <ele>53.754971</ele>
        <time>2023-09-10T08:42:31.000Z</time>
      </trkpt>
      <trkpt lat="52.301499" lon="-0.293601">
        <ele>53.511927</ele>
        <time>2023-09-10T08:42:33.000Z</time>
      </trkpt>
      <trkpt lat="52.300216" lon="-0.292448">
        <ele>51.4713</ele>
        <time>2023-09-10T08:42:49.000Z</time>
      </trkpt>
      <trkpt lat="52.299861" lon="-0.291924">
        <ele>50.793475</ele>
        <time>2023-09-10T08:42:54.000Z</time>
      </trkpt>
      <trkpt lat="52.298349" lon="-0.289739">
        <ele>47.981921</ele>
        <time>2023-09-10T08:43:16.000Z</time>
      </trkpt>
      <trkpt lat="52.298085" lon="-0.289385">
        <ele>47.512649</ele>
        <time>2023-09-10T08:43:20.000Z</time>
      </trkpt>
      <trkpt lat="52.296417" lon="-0.286985">
        <ele>44.341769</ele>
        <time>2023-09-10T08:43:45.000Z</time>
      </trkpt>
      <trkpt lat="52.296368" lon="-0.286914">
        <ele>44.249011</ele>
        <time>2023-09-10T08:43:46.000Z</time>
      </trkpt>
      <trkpt lat="52.29589" lon="-0.286232">
        <ele>43.540242</ele>
        <time>2023-09-10T08:43:53.000Z</time>
      </trkpt>
      <trkpt lat="52.290912" lon="-0.279062">
        <ele>38.837618</ele>
        <time>2023-09-10T08:45:07.000Z</time>
      </trkpt>
      <trkpt lat="52.290642" lon="-0.278965">
        <ele>38.618781</ele>
        <time>2023-09-10T08:45:10.000Z</time>
      </trkpt>
      <trkpt lat="52.29039" lon="-0.280258">
        <ele>37.143488</ele>
        <time>2023-09-10T08:45:19.000Z</time>
      </trkpt>
      <trkpt lat="52.290177" lon="-0.281097">
        <ele>36.150264</ele>
        <time>2023-09-10T08:45:25.000Z</time>
      </trkpt>
      <trkpt lat="52.289516" lon="-0.282134">
        <ele>34.813172</ele>
        <time>2023-09-10T08:45:35.000Z</time>
      </trkpt>
      <trkpt lat="52.28925" lon="-0.282503">
        <ele>34.393891</ele>
        <time>2023-09-10T08:45:39.000Z</time>
      </trkpt>
      <trkpt lat="52.288684" lon="-0.282986">
        <ele>33.642078</ele>
        <time>2023-09-10T08:45:46.000Z</time>
      </trkpt>
      <trkpt lat="52.285781" lon="-0.28509">
        <ele>41.212854</ele>
        <time>2023-09-10T08:46:21.000Z</time>
      </trkpt>
      <trkpt lat="52.284909" lon="-0.285826">
        <ele>43.795963</ele>
        <time>2023-09-10T08:46:32.000Z</time>
      </trkpt>
      <trkpt lat="52.284359" lon="-0.286553">
        <ele>45.196174</ele>
        <time>2023-09-10T08:46:40.000Z</time>
      </trkpt>
      <trkpt lat="52.283923" lon="-0.287402">
        <ele>46.533206</ele>
        <time>2023-09-10T08:46:48.000Z</time>
      </trkpt>
      <trkpt lat="52.283516" lon="-0.288496">
        <ele>47.207329</ele>
        <time>2023-09-10T08:46:57.000Z</time>
      </trkpt>
      <trkpt lat="52.283386" lon="-0.289092">
        <ele>47.454344</ele>
        <time>2023-09-10T08:47:01.000Z</time>
      </trkpt>
      <trkpt lat="52.283247" lon="-0.289884">
        <ele>47.77726</ele>
        <time>2023-09-10T08:47:07.000Z</time>
      </trkpt>
      <trkpt lat="52.28319" lon="-0.290546">
        <ele>47.989443</ele>
        <time>2023-09-10T08:47:12.000Z</time>
      </trkpt>
      <trkpt lat="52.283194" lon="-0.291907">
        <ele>48.233526</ele>
        <time>2023-09-10T08:47:21.000Z</time>
      </trkpt>
      <trkpt lat="52.283468" lon="-0.294803">
        <ele>48.940311</ele>
        <time>2023-09-10T08:47:41.000Z</time>
      </trkpt>
      <trkpt lat="52.283713" lon="-0.296688">
        <ele>49.467616</ele>
        <time>2023-09-10T08:47:54.000Z</time>
      </trkpt>
      <trkpt lat="52.284028" lon="-0.298751">
        <ele>49.953883</ele>
        <time>2023-09-10T08:48:08.000Z</time>
      </trkpt>
      <trkpt lat="52.284104" lon="-0.299089">
        <ele>49.995892</ele>
        <time>2023-09-10T08:48:10.000Z</time>
      </trkpt>
      <trkpt lat="52.284828" lon="-0.302571">
        <ele>49.889756</ele>
        <time>2023-09-10T08:48:35.000Z</time>
      </trkpt>
      <trkpt lat="52.284915" lon="-0.302891">
        <ele>49.924647</ele>
        <time>2023-09-10T08:48:37.000Z</time>
      </trkpt>
      <trkpt lat="52.284997" lon="-0.303254">
        <ele>49.964641</ele>
        <time>2023-09-10T08:48:40.000Z</time>
      </trkpt>
      <trkpt lat="52.285115" lon="-0.303682">
        <ele>50.012804</ele>
        <time>2023-09-10T08:48:43.000Z</time>
      </trkpt>
      <trkpt lat="52.285612" lon="-0.305342">
        <ele>50.616183</ele>
        <time>2023-09-10T08:48:56.000Z</time>
      </trkpt>
      <trkpt lat="52.286372" lon="-0.307423">
        <ele>51.958001</ele>
        <time>2023-09-10T08:49:12.000Z</time>
      </trkpt>
      <trkpt lat="52.28675" lon="-0.308504">
        <ele>52.804766</ele>
        <time>2023-09-10T08:49:20.000Z</time>
      </trkpt>
      <trkpt lat="52.286903" lon="-0.308917">
        <ele>53.128182</ele>
        <time>2023-09-10T08:49:23.000Z</time>
      </trkpt>
      <trkpt lat="52.287108" lon="-0.309501">
        <ele>53.583065</ele>
        <time>2023-09-10T08:49:28.000Z</time>
      </trkpt>
      <trkpt lat="52.287318" lon="-0.310397">
        <ele>54.064585</ele>
        <time>2023-09-10T08:49:35.000Z</time>
      </trkpt>
      <trkpt lat="52.287391" lon="-0.311182">
        <ele>54.443339</ele>
        <time>2023-09-10T08:49:40.000Z</time>
      </trkpt>
      <trkpt lat="52.287353" lon="-0.312213">
        <ele>54.930996</ele>
        <time>2023-09-10T08:49:47.000Z</time>
      </trkpt>
      <trkpt lat="52.287383" lon="-0.312793">
        <ele>55.215707</ele>
        <time>2023-09-10T08:49:51.000Z</time>
      </trkpt>
      <trkpt lat="52.287722" lon="-0.314157">
        <ele>55.944004</ele>
        <time>2023-09-10T08:50:01.000Z</time>
      </trkpt>
      <trkpt lat="52.287764" lon="-0.314436">
        <ele>56.084922</ele>
        <time>2023-09-10T08:50:03.000Z</time>
      </trkpt>
      <trkpt lat="52.287772" lon="-0.314516">
        <ele>56.12541</ele>
        <time>2023-09-10T08:50:04.000Z</time>
      </trkpt>
      <trkpt lat="52.287869" lon="-0.3158">
        <ele>56.764726</ele>
        <time>2023-09-10T08:50:13.000Z</time>
      </trkpt>
      <trkpt lat="52.287885" lon="-0.316925">
        <ele>57.33777</ele>
        <time>2023-09-10T08:50:21.000Z</time>
      </trkpt>
      <trkpt lat="52.287993" lon="-0.317695">
        <ele>57.739716</ele>
        <time>2023-09-10T08:50:26.000Z</time>
      </trkpt>
      <trkpt lat="52.288033" lon="-0.317884">
        <ele>57.836802</ele>
        <time>2023-09-10T08:50:27.000Z</time>
      </trkpt>
      <trkpt lat="52.288081" lon="-0.31802">
        <ele>57.912736</ele>
        <time>2023-09-10T08:50:28.000Z</time>
      </trkpt>
      <trkpt lat="52.288326" lon="-0.318687">
        <ele>58.021202</ele>
        <time>2023-09-10T08:50:33.000Z</time>
      </trkpt>
      <trkpt lat="52.288336" lon="-0.31875">
        <ele>58.024789</ele>
        <time>2023-09-10T08:50:33.000Z</time>
      </trkpt>
      <trkpt lat="52.288425" lon="-0.319047">
        <ele>58.046673</ele>
        <time>2023-09-10T08:50:35.000Z</time>
      </trkpt>
      <trkpt lat="52.288413" lon="-0.319446">
        <ele>58.072939</ele>
        <time>2023-09-10T08:50:38.000Z</time>
      </trkpt>
      <trkpt lat="52.288388" lon="-0.319817">
        <ele>58.096342</ele>
        <time>2023-09-10T08:50:41.000Z</time>
      </trkpt>
      <trkpt lat="52.288415" lon="-0.320143">
        <ele>58.118842</ele>
        <time>2023-09-10T08:50:43.000Z</time>
      </trkpt>
      <trkpt lat="52.288489" lon="-0.320417">
        <ele>58.137496</ele>
        <time>2023-09-10T08:50:45.000Z</time>
      </trkpt>
      <trkpt lat="52.288677" lon="-0.320627">
        <ele>58.161897</ele>
        <time>2023-09-10T08:50:48.000Z</time>
      </trkpt>
      <trkpt lat="52.288988" lon="-0.320834">
        <ele>58.118419</ele>
        <time>2023-09-10T08:50:52.000Z</time>
      </trkpt>
      <trkpt lat="52.289316" lon="-0.32129">
        <ele>58.032768</ele>
        <time>2023-09-10T08:50:57.000Z</time>
      </trkpt>
      <trkpt lat="52.289382" lon="-0.321451">
        <ele>58.008326</ele>
        <time>2023-09-10T08:50:58.000Z</time>
      </trkpt>
      <trkpt lat="52.289664" lon="-0.322038">
        <ele>57.917274</ele>
        <time>2023-09-10T08:51:03.000Z</time>
      </trkpt>
      <trkpt lat="52.289768" lon="-0.322563">
        <ele>57.85321</ele>
        <time>2023-09-10T08:51:07.000Z</time>
      </trkpt>
      <trkpt lat="52.289767" lon="-0.323047">
        <ele>57.918571</ele>
        <time>2023-09-10T08:51:10.000Z</time>
      </trkpt>
      <trkpt lat="52.289659" lon="-0.3237">
        <ele>58.322081</ele>
        <time>2023-09-10T08:51:15.000Z</time>
      </trkpt>
      <trkpt lat="52.289497" lon="-0.324254">
        <ele>58.69299</ele>
        <time>2023-09-10T08:51:19.000Z</time>
      </trkpt>
      <trkpt lat="52.289291" lon="-0.325086">
        <ele>59.23309</ele>
        <time>2023-09-10T08:51:25.000Z</time>
      </trkpt>
      <trkpt lat="52.288908" lon="-0.326505">
        <ele>60.425653</ele>
        <time>2023-09-10T08:51:36.000Z</time>
      </trkpt>
      <trkpt lat="52.288613" lon="-0.3272">
        <ele>61.160357</ele>
        <time>2023-09-10T08:51:42.000Z</time>
      </trkpt>
      <trkpt lat="52.286751" lon="-0.330224">
        <ele>62.950598</ele>
        <time>2023-09-10T08:52:11.000Z</time>
      </trkpt>
      <trkpt lat="52.285853" lon="-0.332224">
        <ele>60.508379</ele>
        <time>2023-09-10T08:52:28.000Z</time>
      </trkpt>
      <trkpt lat="52.284947" lon="-0.333121">
        <ele>57.256228</ele>
        <time>2023-09-10T08:52:40.000Z</time>
      </trkpt>
      <trkpt lat="52.284326" lon="-0.333742">
        <ele>54.810618</ele>
        <time>2023-09-10T08:52:48.000Z</time>
      </trkpt>
      <trkpt lat="52.283736" lon="-0.334511">
        <ele>51.270186</ele>
        <time>2023-09-10T08:52:56.000Z</time>
      </trkpt>
      <trkpt lat="52.282848" lon="-0.335341">
        <ele>46.199271</ele>
        <time>2023-09-10T08:53:07.000Z</time>
      </trkpt>
      <trkpt lat="52.281549" lon="-0.33635">
        <ele>40.268836</ele>
        <time>2023-09-10T08:53:23.000Z</time>
      </trkpt>
      <trkpt lat="52.27901" lon="-0.338113">
        <ele>35.312973</ele>
        <time>2023-09-10T08:53:54.000Z</time>
      </trkpt>
      <trkpt lat="52.278275" lon="-0.338714">
        <ele>34.398484</ele>
        <time>2023-09-10T08:54:03.000Z</time>
      </trkpt>
      <trkpt lat="52.278226" lon="-0.338766">
        <ele>34.331386</ele>
        <time>2023-09-10T08:54:04.000Z</time>
      </trkpt>
      <trkpt lat="52.27655" lon="-0.340762">
        <ele>31.326245</ele>
        <time>2023-09-10T08:54:27.000Z</time>
      </trkpt>
      <trkpt lat="52.274791" lon="-0.342846">
        <ele>29.277976</ele>
        <time>2023-09-10T08:54:51.000Z</time>
      </trkpt>
      <trkpt lat="52.273616" lon="-0.344235">
        <ele>29.065889</ele>
        <time>2023-09-10T08:55:07.000Z</time>
      </trkpt>
      <trkpt lat="52.272964" lon="-0.344988">
        <ele>29.069791</ele>
        <time>2023-09-10T08:55:16.000Z</time>
      </trkpt>
      <trkpt lat="52.272366" lon="-0.345692">
        <ele>29.107323</ele>
        <time>2023-09-10T08:55:24.000Z</time>
      </trkpt>
      <trkpt lat="52.271593" lon="-0.346616">
        <ele>29.404669</ele>
        <time>2023-09-10T08:55:35.000Z</time>
      </trkpt>
      <trkpt lat="52.271472" lon="-0.346523">
        <ele>29.478931</ele>
        <time>2023-09-10T08:55:36.000Z</time>
      </trkpt>
      <trkpt lat="52.270856" lon="-0.34634">
        <ele>29.832311</ele>
        <time>2023-09-10T08:55:43.000Z</time>
      </trkpt>
      <trkpt lat="52.270819" lon="-0.346332">
        <ele>29.850633</ele>
        <time>2023-09-10T08:55:43.000Z</time>
      </trkpt>
      <trkpt lat="52.270594" lon="-0.346279">
        <ele>29.971996</ele>
        <time>2023-09-10T08:55:46.000Z</time>
      </trkpt>
      <trkpt lat="52.270308" lon="-0.346185">
        <ele>30.137036</ele>
        <time>2023-09-10T08:55:49.000Z</time>
      </trkpt>
      <trkpt lat="52.269863" lon="-0.346015">
        <ele>30.408382</ele>
        <time>2023-09-10T08:55:54.000Z</time>
      </trkpt>
      <trkpt lat="52.269158" lon="-0.345673">
        <ele>30.83293</ele>
        <time>2023-09-10T08:56:02.000Z</time>
      </trkpt>
      <trkpt lat="52.268917" lon="-0.345546">
        <ele>30.98656</ele>
        <time>2023-09-10T08:56:05.000Z</time>
      </trkpt>
      <trkpt lat="52.268553" lon="-0.345475">
        <ele>31.152167</ele>
        <time>2023-09-10T08:56:09.000Z</time>
      </trkpt>
      <trkpt lat="52.268286" lon="-0.345285">
        <ele>30.903833</ele>
        <time>2023-09-10T08:56:12.000Z</time>
      </trkpt>
      <trkpt lat="52.26815" lon="-0.344471">
        <ele>30.460879</ele>
        <time>2023-09-10T08:56:18.000Z</time>
      </trkpt>
      <trkpt lat="52.268101" lon="-0.344039">
        <ele>30.229251</ele>
        <time>2023-09-10T08:56:21.000Z</time>
      </trkpt>
      <trkpt lat="52.268093" lon="-0.343947">
        <ele>30.176477</ele>
        <time>2023-09-10T08:56:22.000Z</time>
      </trkpt>
      <trkpt lat="52.267976" lon="-0.342874">
        <ele>29.572652</ele>
        <time>2023-09-10T08:56:29.000Z</time>
      </trkpt>
      <trkpt lat="52.267902" lon="-0.342342">
        <ele>29.004473</ele>
        <time>2023-09-10T08:56:33.000Z</time>
      </trkpt>
      <trkpt lat="52.267752" lon="-0.341559">
        <ele>28.171276</ele>
        <time>2023-09-10T08:56:39.000Z</time>
      </trkpt>
      <trkpt lat="52.267578" lon="-0.34058">
        <ele>27.13475</ele>
        <time>2023-09-10T08:56:46.000Z</time>
      </trkpt>
      <trkpt lat="52.267506" lon="-0.340225">
        <ele>26.734673</ele>
        <time>2023-09-10T08:56:49.000Z</time>
      </trkpt>
      <trkpt lat="52.267131" lon="-0.338115">
        <ele>25.406788</ele>
        <time>2023-09-10T08:57:04.000Z</time>
      </trkpt>
      <trkpt lat="52.2671" lon="-0.337982">
        <ele>25.32856</ele>
        <time>2023-09-10T08:57:05.000Z</time>
      </trkpt>
      <trkpt lat="52.267014" lon="-0.337585">
        <ele>25.081395</ele>
        <time>2023-09-10T08:57:08.000Z</time>
      </trkpt>
      <trkpt lat="52.266655" lon="-0.335716">
        <ele>25.111594</ele>
        <time>2023-09-10T08:57:21.000Z</time>
      </trkpt>
      <trkpt lat="52.266317" lon="-0.334025">
        <ele>25.427011</ele>
        <time>2023-09-10T08:57:33.000Z</time>
      </trkpt>
      <trkpt lat="52.265897" lon="-0.332994">
        <ele>25.809812</ele>
        <time>2023-09-10T08:57:41.000Z</time>
      </trkpt>
      <trkpt lat="52.264364" lon="-0.331206">
        <ele>26.618804</ele>
        <time>2023-09-10T08:58:02.000Z</time>
      </trkpt>
      <trkpt lat="52.264152" lon="-0.330889">
        <ele>26.725152</ele>
        <time>2023-09-10T08:58:05.000Z</time>
      </trkpt>
      <trkpt lat="52.263954" lon="-0.330466">
        <ele>26.848278</ele>
        <time>2023-09-10T08:58:09.000Z</time>
      </trkpt>
      <trkpt lat="52.261164" lon="-0.321867">
        <ele>25.186913</ele>
        <time>2023-09-10T08:59:15.000Z</time>
      </trkpt>
      <trkpt lat="52.260794" lon="-0.320943">
        <ele>24.864026</ele>
        <time>2023-09-10T08:59:23.000Z</time>
      </trkpt>
      <trkpt lat="52.260486" lon="-0.319898">
        <ele>24.530007</ele>
        <time>2023-09-10T08:59:31.000Z</time>
      </trkpt>
      <trkpt lat="52.260125" lon="-0.3191">
        <ele>24.280567</ele>
        <time>2023-09-10T08:59:38.000Z</time>
      </trkpt>
      <trkpt lat="52.259774" lon="-0.318505">
        <ele>24.078888</ele>
        <time>2023-09-10T08:59:44.000Z</time>
      </trkpt>
      <trkpt lat="52.258189" lon="-0.31468">
        <ele>23.026554</ele>
        <time>2023-09-10T09:00:15.000Z</time>
      </trkpt>
      <trkpt lat="52.257688" lon="-0.313428">
        <ele>22.475925</ele>
        <time>2023-09-10T09:00:25.000Z</time>
      </trkpt>
      <trkpt lat="52.257224" lon="-0.312257">
        <ele>22.102793</ele>
        <time>2023-09-10T09:00:34.000Z</time>
      </trkpt>
      <trkpt lat="52.256621" lon="-0.311255">
        <ele>21.873565</ele>
        <time>2023-09-10T09:00:44.000Z</time>
      </trkpt>
      <trkpt lat="52.256363" lon="-0.311113">
        <ele>21.798387</ele>
        <time>2023-09-10T09:00:47.000Z</time>
      </trkpt>
      <trkpt lat="52.255595" lon="-0.310957">
        <ele>22.348129</ele>
        <time>2023-09-10T09:00:56.000Z</time>
      </trkpt>
      <trkpt lat="52.255368" lon="-0.310758">
        <ele>22.633823</ele>
        <time>2023-09-10T09:00:59.000Z</time>
      </trkpt>
      <trkpt lat="52.25442" lon="-0.309347">
        <ele>24.364913</ele>
        <time>2023-09-10T09:01:13.000Z</time>
      </trkpt>
      <trkpt lat="52.25421" lon="-0.308913">
        <ele>25.053742</ele>
        <time>2023-09-10T09:01:17.000Z</time>
      </trkpt>
      <trkpt lat="52.253798" lon="-0.308107">
        <ele>26.357021</ele>
        <time>2023-09-10T09:01:24.000Z</time>
      </trkpt>
      <trkpt lat="52.253305" lon="-0.307116">
        <ele>27.973981</ele>
        <time>2023-09-10T09:01:33.000Z</time>
      </trkpt>
      <trkpt lat="52.253117" lon="-0.306877">
        <ele>28.4443</ele>
        <time>2023-09-10T09:01:36.000Z</time>
      </trkpt>
      <trkpt lat="52.2529" lon="-0.306821">
        <ele>28.90245</ele>
        <time>2023-09-10T09:01:38.000Z</time>
      </trkpt>
      <trkpt lat="52.252081" lon="-0.307022">
        <ele>30.650705</ele>
        <time>2023-09-10T09:01:47.000Z</time>
      </trkpt>
      <trkpt lat="52.251395" lon="-0.307125">
        <ele>31.628336</ele>
        <time>2023-09-10T09:01:55.000Z</time>
      </trkpt>
      <trkpt lat="52.250458" lon="-0.306797">
        <ele>32.526285</ele>
        <time>2023-09-10T09:02:06.000Z</time>
      </trkpt>
      <trkpt lat="52.249821" lon="-0.306725">
        <ele>32.971875</ele>
        <time>2023-09-10T09:02:13.000Z</time>
      </trkpt>
      <trkpt lat="52.249211" lon="-0.306667">
        <ele>33.126143</ele>
        <time>2023-09-10T09:02:20.000Z</time>
      </trkpt>
      <trkpt lat="52.24899" lon="-0.306564">
        <ele>33.184272</ele>
        <time>2023-09-10T09:02:23.000Z</time>
      </trkpt>
      <trkpt lat="52.248578" lon="-0.306252">
        <ele>33.301243</ele>
        <time>2023-09-10T09:02:28.000Z</time>
      </trkpt>
      <trkpt lat="52.248083" lon="-0.305458">
        <ele>33.432546</ele>
        <time>2023-09-10T09:02:36.000Z</time>
      </trkpt>
      <trkpt lat="52.247481" lon="-0.303654">
        <ele>33.609752</ele>
        <time>2023-09-10T09:02:50.000Z</time>
      </trkpt>
      <trkpt lat="52.247089" lon="-0.302637">
        <ele>33.630584</ele>
        <time>2023-09-10T09:02:58.000Z</time>
      </trkpt>
      <trkpt lat="52.246793" lon="-0.302101">
        <ele>33.630668</ele>
        <time>2023-09-10T09:03:03.000Z</time>
      </trkpt>
      <trkpt lat="52.246336" lon="-0.301417">
        <ele>33.63078</ele>
        <time>2023-09-10T09:03:10.000Z</time>
      </trkpt>
      <trkpt lat="52.245473" lon="-0.300355">
        <ele>32.869251</ele>
        <time>2023-09-10T09:03:22.000Z</time>
      </trkpt>
      <trkpt lat="52.245167" lon="-0.299982">
        <ele>32.559679</ele>
        <time>2023-09-10T09:03:26.000Z</time>
      </trkpt>
      <trkpt lat="52.244967" lon="-0.299604">
        <ele>32.310643</ele>
        <time>2023-09-10T09:03:29.000Z</time>
      </trkpt>
      <trkpt lat="52.244288" lon="-0.298773">
        <ele>31.59089</ele>
        <time>2023-09-10T09:03:38.000Z</time>
      </trkpt>
      <trkpt lat="52.243984" lon="-0.298412">
        <ele>31.27718</ele>
        <time>2023-09-10T09:03:42.000Z</time>
      </trkpt>
      <trkpt lat="52.243626" lon="-0.29774">
        <ele>30.807527</ele>
        <time>2023-09-10T09:03:48.000Z</time>
      </trkpt>
      <trkpt lat="52.242782" lon="-0.295867">
        <ele>31.200564</ele>
        <time>2023-09-10T09:04:04.000Z</time>
      </trkpt>
      <trkpt lat="52.242639" lon="-0.295454">
        <ele>31.331813</ele>
        <time>2023-09-10T09:04:07.000Z</time>
      </trkpt>
      <trkpt lat="52.242426" lon="-0.294407">
        <ele>31.731618</ele>
        <time>2023-09-10T09:04:15.000Z</time>
      </trkpt>
      <trkpt lat="52.242262" lon="-0.293965">
        <ele>31.944606</ele>
        <time>2023-09-10T09:04:19.000Z</time>
      </trkpt>
      <trkpt lat="52.242054" lon="-0.293634">
        <ele>32.142975</ele>
        <time>2023-09-10T09:04:22.000Z</time>
      </trkpt>
      <trkpt lat="52.241865" lon="-0.293459">
        <ele>32.293775</ele>
        <time>2023-09-10T09:04:24.000Z</time>
      </trkpt>
      <trkpt lat="52.241376" lon="-0.293252">
        <ele>32.633782</ele>
        <time>2023-09-10T09:04:30.000Z</time>
      </trkpt>
      <trkpt lat="52.241192" lon="-0.29323">
        <ele>32.680232</ele>
        <time>2023-09-10T09:04:32.000Z</time>
      </trkpt>
      <trkpt lat="52.240552" lon="-0.293151">
        <ele>32.624829</ele>
        <time>2023-09-10T09:04:39.000Z</time>
      </trkpt>
      <trkpt lat="52.2402" lon="-0.292957">
        <ele>32.593211</ele>
        <time>2023-09-10T09:04:43.000Z</time>
      </trkpt>
      <trkpt lat="52.239591" lon="-0.292163">
        <ele>32.519317</ele>
        <time>2023-09-10T09:04:52.000Z</time>
      </trkpt>
      <trkpt lat="52.239253" lon="-0.291532">
        <ele>32.440038</ele>
        <time>2023-09-10T09:04:58.000Z</time>
      </trkpt>
      <trkpt lat="52.239096" lon="-0.291047">
        <ele>32.389406</ele>
        <time>2023-09-10T09:05:02.000Z</time>
      </trkpt>
      <trkpt lat="52.238316" lon="-0.287884">
        <ele>32.235608</ele>
        <time>2023-09-10T09:05:25.000Z</time>
      </trkpt>
      <trkpt lat="52.237807" lon="-0.286301">
        <ele>32.314782</ele>
        <time>2023-09-10T09:05:37.000Z</time>
      </trkpt>
      <trkpt lat="52.237743" lon="-0.286165">
        <ele>32.331478</ele>
        <time>2023-09-10T09:05:38.000Z</time>
      </trkpt>
      <trkpt lat="52.237431" lon="-0.285249">
        <ele>32.438832</ele>
        <time>2023-09-10T09:05:45.000Z</time>
      </trkpt>
      <trkpt lat="52.237052" lon="-0.284206">
        <ele>32.498832</ele>
        <time>2023-09-10T09:05:53.000Z</time>
      </trkpt>
      <trkpt lat="52.236681" lon="-0.283349">
        <ele>32.420728</ele>
        <time>2023-09-10T09:06:00.000Z</time>
      </trkpt>
      <trkpt lat="52.236473" lon="-0.282897">
        <ele>32.376805</ele>
        <time>2023-09-10T09:06:04.000Z</time>
      </trkpt>
      <trkpt lat="52.236377" lon="-0.282767">
        <ele>32.362251</ele>
        <time>2023-09-10T09:06:05.000Z</time>
      </trkpt>
      <trkpt lat="52.236294" lon="-0.282627">
        <ele>32.348536</ele>
        <time>2023-09-10T09:06:06.000Z</time>
      </trkpt>
      <trkpt lat="52.236289" lon="-0.282625">
        <ele>32.347634</ele>
        <time>2023-09-10T09:06:06.000Z</time>
      </trkpt>
      <trkpt lat="52.236106" lon="-0.282295">
        <ele>32.31372</ele>
        <time>2023-09-10T09:06:09.000Z</time>
      </trkpt>
      <trkpt lat="52.236093" lon="-0.282238">
        <ele>32.308596</ele>
        <time>2023-09-10T09:06:09.000Z</time>
      </trkpt>
      <trkpt lat="52.236034" lon="-0.282073">
        <ele>32.227138</ele>
        <time>2023-09-10T09:06:10.000Z</time>
      </trkpt>
      <trkpt lat="52.235901" lon="-0.281786">
        <ele>32.032914</ele>
        <time>2023-09-10T09:06:12.000Z</time>
      </trkpt>
      <trkpt lat="52.23512" lon="-0.279792">
        <ele>30.741191</ele>
        <time>2023-09-10T09:06:28.000Z</time>
      </trkpt>
      <trkpt lat="52.234874" lon="-0.278995">
        <ele>29.545172</ele>
        <time>2023-09-10T09:06:34.000Z</time>
      </trkpt>
      <trkpt lat="52.234473" lon="-0.27768">
        <ele>27.527993</ele>
        <time>2023-09-10T09:06:44.000Z</time>
      </trkpt>
      <trkpt lat="52.234129" lon="-0.277113">
        <ele>26.349353</ele>
        <time>2023-09-10T09:06:49.000Z</time>
      </trkpt>
      <trkpt lat="52.233947" lon="-0.276845">
        <ele>25.573572</ele>
        <time>2023-09-10T09:06:52.000Z</time>
      </trkpt>
      <trkpt lat="52.233659" lon="-0.276587">
        <ele>24.479461</ele>
        <time>2023-09-10T09:06:56.000Z</time>
      </trkpt>
      <trkpt lat="52.233245" lon="-0.276382">
        <ele>23.124209</ele>
        <time>2023-09-10T09:07:01.000Z</time>
      </trkpt>
      <trkpt lat="52.23267" lon="-0.276126">
        <ele>21.228295</ele>
        <time>2023-09-10T09:07:08.000Z</time>
      </trkpt>
      <trkpt lat="52.232552" lon="-0.276084">
        <ele>20.870859</ele>
        <time>2023-09-10T09:07:09.000Z</time>
      </trkpt>
      <trkpt lat="52.232329" lon="-0.276017">
        <ele>20.461291</ele>
        <time>2023-09-10T09:07:12.000Z</time>
      </trkpt>
      <trkpt lat="52.232203" lon="-0.276006">
        <ele>20.247707</ele>
        <time>2023-09-10T09:07:13.000Z</time>
      </trkpt>
      <trkpt lat="52.232005" lon="-0.276013">
        <ele>19.923516</ele>
        <time>2023-09-10T09:07:15.000Z</time>
      </trkpt>
      <trkpt lat="52.230587" lon="-0.276182">
        <ele>17.7995413218</ele>
        <time>2023-09-10T09:07:31.000Z</time>
      </trkpt>
      <trkpt lat="52.23023" lon="-0.276235">
        <ele>17.2640217207</ele>
        <time>2023-09-10T09:07:35.000Z</time>
      </trkpt>
      <trkpt lat="52.230051" lon="-0.276261">
        <ele>16.9955589495</ele>
        <time>2023-09-10T09:07:37.000Z</time>
      </trkpt>
      <trkpt lat="52.229935" lon="-0.276298">
        <ele>16.818991451</ele>
        <time>2023-09-10T09:07:38.000Z</time>
      </trkpt>
      <trkpt lat="52.229864" lon="-0.276312">
        <ele>16.7121543828</ele>
        <time>2023-09-10T09:07:39.000Z</time>
      </trkpt>
      <trkpt lat="52.229777" lon="-0.276318">
        <ele>16.5820699014</ele>
        <time>2023-09-10T09:07:40.000Z</time>
      </trkpt>
      <trkpt lat="52.229675" lon="-0.27633">
        <ele>16.4292978538</ele>
        <time>2023-09-10T09:07:41.000Z</time>
      </trkpt>
      <trkpt lat="52.229645" lon="-0.276344">
        <ele>16.3826862739</ele>
        <time>2023-09-10T09:07:41.000Z</time>
      </trkpt>
      <trkpt lat="52.229413" lon="-0.276401">
        <ele>16.0322010561</ele>
        <time>2023-09-10T09:07:44.000Z</time>
      </trkpt>
      <trkpt lat="52.229376" lon="-0.276402">
        <ele>15.9769194888</ele>
        <time>2023-09-10T09:07:44.000Z</time>
      </trkpt>
      <trkpt lat="52.229291" lon="-0.276419">
        <ele>15.8489894787</ele>
        <time>2023-09-10T09:07:45.000Z</time>
      </trkpt>
      <trkpt lat="52.22928" lon="-0.27643">
        <ele>15.8297191805</ele>
        <time>2023-09-10T09:07:45.000Z</time>
      </trkpt>
      <trkpt lat="52.229212" lon="-0.276442">
        <ele>15.7275428486</ele>
        <time>2023-09-10T09:07:46.000Z</time>
      </trkpt>
      <trkpt lat="52.229198" lon="-0.276452">
        <ele>15.704714338</ele>
        <time>2023-09-10T09:07:46.000Z</time>
      </trkpt>
      <trkpt lat="52.229196" lon="-0.276375">
        <ele>15.6341948497</ele>
        <time>2023-09-10T09:07:47.000Z</time>
      </trkpt>
      <trkpt lat="52.229084" lon="-0.275706">
        <ele>14.9995947957</ele>
        <time>2023-09-10T09:07:52.000Z</time>
      </trkpt>
    </trkseg>
  </trk>
</gpx>

<!--
Performance optimized by W3 Total Cache. Learn more: https://www.boldgrid.com/w3-total-cache/?utm_source=w3tc&utm_medium=footer_comment&utm_campaign=free_plugin

Page Caching using Disk: Enhanced{w3tc_pagecache_reject_reason} 

Served from: www.aquabike.world @ 2026-05-10 16:01:33 by W3 Total Cache
-->